Kansk, Russia
Current Conditions -  °F | °C
As of 9:00 PM on Wednesday 28 Jan 2015 (Local Time) from UNKL Reporting Station
Broken Clouds Broken Clouds  
Wind Chill:   Ceiling: 8300
Heat Index: 10°   Visibility: 5mi
Dew Point: -4°   Wind: 7mph
Humidity: 52%   Direction: 190°S
Pressure: 30.33"   Gusts: NA
Location:  56.2°N, 95.71°E
Report Text: UNKL 281400Z 19003MPS 8000 BKN083 M12/M20 Q1027 NOSIG RMKQFE744 29////55
Loading
Personal Weather Stations






























Interactive Weather Map New forecast layout! Learn more

10-Day Weather Forecast

Advertisements
Track Severe Weather on mobile